Time;durP1;ratioP1;P1;durP2;ratioP2;P2;SDS_P1;SDS_P2;PMS_P1;PMS_P2;Temp;Humidity;BMP_temperature;BMP_pressure;BME280_temperature;BME280_humidity;BME280_pressure;Samples;Min_cycle;Max_cycle;Signal;HPM_P1;HPM_P2
2023/12/29 00:03:20;;;;;;;;;;;;;;;7.65;100.00;95816.78;10592822;27;2199;-69
2023/12/29 00:08:32;;;;;;;;;;;;;;;7.56;100.00;95805.72;10563240;27;2050;-72
2023/12/29 00:13:40;;;;;;;;;;;;;;;7.58;100.00;95806.28;10598317;27;5081;-69
2023/12/29 00:18:43;;;;;;;;;;;;;;;7.50;100.00;95796.81;10590746;27;2067;-69
2023/12/29 00:23:46;;;;;;;;;;;;;;;7.39;100.00;95792.47;10602141;27;2007;-68
2023/12/29 00:28:50;;;;;;;;;;;;;;;7.40;100.00;95786.03;10603148;27;2010;-68
2023/12/29 00:33:54;;;;;;;;;;;;;;;7.34;100.00;95789.72;10608049;27;1910;-69
2023/12/29 00:38:59;;;;;;;;;;;;;;;7.23;100.00;95775.44;10580904;27;1995;-68
2023/12/29 00:44:05;;;;;;;;;;;;;;;7.20;100.00;95777.81;10602330;27;2196;-67
2023/12/29 00:49:10;;;;;;;;;;;;;;;7.17;100.00;95770.28;10596877;27;2149;-67
2023/12/29 00:54:15;;;;;;;;;;;;;;;7.10;100.00;95767.81;10566481;27;2018;-69
2023/12/29 00:59:21;;;;;;;;;;;;;;;7.08;100.00;95769.16;10575027;27;2427;-68
2023/12/29 01:04:24;;;;;;;;;;;;;;;7.00;100.00;95771.22;10567043;27;2009;-68
2023/12/29 01:09:33;;;;;;;;;;;;;;;6.85;100.00;95768.34;10596741;27;2105;-70
2023/12/29 01:14:38;;;;;;;;;;;;;;;6.68;100.00;95775.63;10597100;27;4989;-69
2023/12/29 01:19:43;;;;;;;;;;;;;;;6.54;100.00;95780.53;10599956;27;1947;-68
2023/12/29 01:24:45;;;;;;;;;;;;;;;6.51;100.00;95781.03;10591371;27;1982;-70
2023/12/29 01:29:50;;;;;;;;;;;;;;;6.44;100.00;95785.75;10621788;27;1955;-69
2023/12/29 01:34:53;;;;;;;;;;;;;;;6.31;100.00;95784.25;10617693;27;2063;-68
2023/12/29 01:40:00;;;;;;;;;;;;;;;6.25;100.00;95782.56;10602441;27;1968;-68
2023/12/29 01:45:04;;;;;;;;;;;;;;;6.26;100.00;95773.50;10587715;27;2016;-68
2023/12/29 01:50:17;;;;;;;;;;;;;;;6.41;100.00;95771.00;10593356;27;2101;-69
2023/12/29 01:55:23;;;;;;;;;;;;;;;6.40;100.00;95765.94;10585494;27;2509;-67
2023/12/29 02:00:29;;;;;;;;;;;;;;;6.35;100.00;95761.31;10577804;27;2126;-67
2023/12/29 02:05:36;;;;;;;;;;;;;;;6.20;100.00;95769.13;10616782;27;2041;-68
2023/12/29 02:10:39;;;;;;;;;;;;;;;6.07;100.00;95761.47;10601819;27;2099;-68
2023/12/29 02:15:44;;;;;;;;;;;;;;;5.92;100.00;95746.88;10593850;27;5013;-71
2023/12/29 02:20:47;;;;;;;;;;;;;;;5.77;100.00;95748.44;10583351;27;2066;-69
2023/12/29 02:25:51;;;;;;;;;;;;;;;5.66;100.00;95752.81;10583281;27;1941;-68
2023/12/29 02:30:55;;;;;;;;;;;;;;;5.61;100.00;95755.44;10580955;27;2005;-68
2023/12/29 02:35:59;;;;;;;;;;;;;;;5.50;100.00;95750.97;10581643;27;1954;-68
2023/12/29 02:41:03;;;;;;;;;;;;;;;5.61;100.00;95744.75;10567014;27;2071;-70
2023/12/29 02:46:08;;;;;;;;;;;;;;;5.87;100.00;95736.09;10580198;27;2071;-68
2023/12/29 02:51:11;;;;;;;;;;;;;;;6.16;100.00;95725.28;10582081;27;1973;-68
2023/12/29 02:56:15;;;;;;;;;;;;;;;6.36;100.00;95714.91;10583494;27;1914;-68
2023/12/29 03:01:18;;;;;;;;;;;;;;;6.64;100.00;95716.56;10596486;27;2047;-68
2023/12/29 03:06:22;;;;;;;;;;;;;;;6.80;100.00;95704.16;10587768;27;2021;-71
2023/12/29 03:11:26;;;;;;;;;;;;;;;6.84;100.00;95688.44;10598593;27;5038;-71
2023/12/29 03:16:30;;;;;;;;;;;;;;;6.80;100.00;95690.81;10597432;27;1987;-75
2023/12/29 03:21:39;;;;;;;;;;;;;;;6.79;100.00;95691.88;10612961;27;2040;-75
2023/12/29 03:26:42;;;;;;;;;;;;;;;6.80;100.00;95701.50;10595749;27;1917;-68
2023/12/29 03:31:46;;;;;;;;;;;;;;;6.70;100.00;95701.41;10585066;27;2131;-69
2023/12/29 03:36:50;;;;;;;;;;;;;;;6.59;100.00;95702.34;10599854;27;1978;-69
2023/12/29 03:41:57;;;;;;;;;;;;;;;6.62;100.00;95702.66;10604408;27;2018;-68
2023/12/29 03:47:02;;;;;;;;;;;;;;;6.67;100.00;95691.19;10581020;27;2378;-69
2023/12/29 03:52:07;;;;;;;;;;;;;;;6.72;100.00;95688.59;10596134;27;2096;-70
2023/12/29 03:57:13;;;;;;;;;;;;;;;6.87;100.00;95691.44;10584634;27;2023;-68
2023/12/29 04:02:22;;;;;;;;;;;;;;;7.10;100.00;95686.81;10600865;27;2027;-68
2023/12/29 04:07:26;;;;;;;;;;;;;;;7.32;100.00;95685.69;10611186;27;1978;-70
2023/12/29 04:12:33;;;;;;;;;;;;;;;7.59;100.00;95668.78;10594618;27;5065;-69
2023/12/29 04:17:39;;;;;;;;;;;;;;;7.79;100.00;95668.09;10604203;27;1924;-69
2023/12/29 04:22:45;;;;;;;;;;;;;;;7.95;100.00;95666.31;10596254;27;2071;-68
2023/12/29 04:27:48;;;;;;;;;;;;;;;8.01;100.00;95670.63;10612905;27;2106;-72
2023/12/29 04:32:51;;;;;;;;;;;;;;;8.09;100.00;95668.28;10603200;27;2047;-71
2023/12/29 04:37:55;;;;;;;;;;;;;;;8.10;100.00;95659.19;10615785;27;2047;-69
2023/12/29 04:42:58;;;;;;;;;;;;;;;8.12;100.00;95666.94;10588517;27;2247;-69
2023/12/29 04:48:02;;;;;;;;;;;;;;;8.18;100.00;95659.75;10598608;27;1961;-68
2023/12/29 04:53:07;;;;;;;;;;;;;;;8.28;100.00;95662.47;10592232;27;3072;-69
2023/12/29 04:58:12;;;;;;;;;;;;;;;8.27;100.00;95664.34;10605944;27;2021;-71
2023/12/29 05:03:16;;;;;;;;;;;;;;;8.29;100.00;95662.22;10584906;27;2059;-68
2023/12/29 05:08:24;;;;;;;;;;;;;;;8.32;100.00;95667.03;10608024;27;2008;-69
2023/12/29 05:13:29;;;;;;;;;;;;;;;8.37;100.00;95656.38;10587390;27;5104;-69
2023/12/29 05:18:32;;;;;;;;;;;;;;;8.44;100.00;95656.13;10585891;27;1917;-67
2023/12/29 05:23:38;;;;;;;;;;;;;;;8.38;100.00;95649.16;10602872;27;2299;-68
2023/12/29 05:28:49;;;;;;;;;;;;;;;8.44;100.00;95648.09;10594876;27;2102;-68
2023/12/29 05:33:52;;;;;;;;;;;;;;;8.54;100.00;95669.56;10597964;27;1952;-68
2023/12/29 05:38:55;;;;;;;;;;;;;;;8.59;100.00;95666.91;10593939;27;1949;-69
2023/12/29 05:44:00;;;;;;;;;;;;;;;8.60;100.00;95668.53;10603132;27;2055;-68
2023/12/29 05:49:05;;;;;;;;;;;;;;;8.60;100.00;95679.25;10585104;27;1992;-69
2023/12/29 05:54:14;;;;;;;;;;;;;;;8.51;100.00;95671.97;10595764;27;1886;-68
2023/12/29 05:59:19;;;;;;;;;;;;;;;8.56;100.00;95667.44;10586641;27;1990;-69
2023/12/29 06:04:26;;;;;;;;;;;;;;;8.60;100.00;95679.25;10581452;27;2080;-68
2023/12/29 06:09:29;;;;;;;;;;;;;;;8.59;100.00;95682.19;10586276;27;2192;-68
2023/12/29 06:14:33;;;;;;;;;;;;;;;8.50;100.00;95679.19;10584742;27;5070;-67
2023/12/29 06:19:37;;;;;;;;;;;;;;;8.62;100.00;95676.28;10597428;27;1974;-69
2023/12/29 06:24:43;;;;;;;;;;;;;;;8.55;100.00;95697.19;10584982;27;2178;-69
2023/12/29 06:29:47;;;;;;;;;;;;;;;8.49;100.00;95695.53;10612478;27;1913;-68
2023/12/29 06:34:55;;;;;;;;;;;;;;;8.49;100.00;95690.97;10603542;27;1874;-68
2023/12/29 06:39:58;;;;;;;;;;;;;;;8.46;100.00;95686.16;10600126;27;2091;-68
2023/12/29 06:45:07;;;;;;;;;;;;;;;8.38;100.00;95689.31;10585822;27;2071;-70
2023/12/29 06:50:12;;;;;;;;;;;;;;;8.38;100.00;95687.44;10599884;27;1900;-70
2023/12/29 06:55:18;;;;;;;;;;;;;;;8.44;100.00;95690.97;10591093;27;2306;-69
2023/12/29 07:00:23;;;;;;;;;;;;;;;8.52;100.00;95693.13;10581838;27;2017;-69
2023/12/29 07:10:50;;;;;;;;;;;;;;;8.44;100.00;95693.63;10600021;27;1943;-68
2023/12/29 07:15:53;;;;;;;;;;;;;;;8.51;100.00;95691.53;10582397;27;2101;-67
2023/12/29 07:20:56;;;;;;;;;;;;;;;8.58;100.00;95685.91;10584102;27;1994;-67
2023/12/29 07:26:02;;;;;;;;;;;;;;;8.66;100.00;95688.09;10598582;27;2018;-68
2023/12/29 07:31:11;;;;;;;;;;;;;;;8.66;100.00;95694.28;10567841;27;2056;-67
2023/12/29 07:36:18;;;;;;;;;;;;;;;8.71;100.00;95695.34;10600350;27;1931;-70
2023/12/29 07:41:23;;;;;;;;;;;;;;;8.68;100.00;95695.88;10601874;27;2079;-69
2023/12/29 07:46:26;;;;;;;;;;;;;;;8.69;100.00;95713.56;10601989;27;1942;-66
2023/12/29 07:51:30;;;;;;;;;;;;;;;8.69;100.00;95702.84;10578106;27;2031;-70
2023/12/29 07:56:34;;;;;;;;;;;;;;;8.69;100.00;95705.53;10604286;27;2021;-73
2023/12/29 08:01:40;;;;;;;;;;;;;;;8.69;100.00;95703.66;10587807;27;2221;-70
2023/12/29 08:06:53;;;;;;;;;;;;;;;8.64;100.00;95733.91;10563731;27;1988;-69
2023/12/29 08:12:02;;;;;;;;;;;;;;;8.69;100.00;95726.97;10583384;27;5109;-68
2023/12/29 08:17:08;;;;;;;;;;;;;;;8.76;100.00;95725.63;10613653;27;1991;-70
2023/12/29 08:22:16;;;;;;;;;;;;;;;8.77;100.00;95726.44;10581032;27;1992;-68
2023/12/29 08:27:25;;;;;;;;;;;;;;;8.70;100.00;95734.72;10609275;27;2032;-68
2023/12/29 08:32:34;;;;;;;;;;;;;;;8.68;100.00;95744.13;10596471;27;1914;-70
2023/12/29 08:37:37;;;;;;;;;;;;;;;8.70;100.00;95737.41;10577359;27;2100;-67
2023/12/29 08:42:42;;;;;;;;;;;;;;;8.71;100.00;95739.03;10599755;27;2054;-70
2023/12/29 08:47:45;;;;;;;;;;;;;;;8.74;100.00;95738.50;10604411;27;2689;-72
2023/12/29 08:52:52;;;;;;;;;;;;;;;8.73;100.00;95736.09;10608078;27;2051;-67
2023/12/29 08:57:57;;;;;;;;;;;;;;;8.71;100.00;95732.84;10599881;27;1971;-67
2023/12/29 09:03:02;;;;;;;;;;;;;;;8.79;100.00;95737.72;10575697;27;2022;-68
2023/12/29 09:08:10;;;;;;;;;;;;;;;8.89;100.00;95735.88;10604813;27;1996;-68
2023/12/29 09:13:17;;;;;;;;;;;;;;;9.01;100.00;95738.31;10607272;27;5236;-67
2023/12/29 09:18:22;;;;;;;;;;;;;;;9.21;100.00;95748.28;10603479;27;1945;-67
2023/12/29 09:23:26;;;;;;;;;;;;;;;9.54;100.00;95748.88;10595121;27;2094;-66
2023/12/29 09:28:30;;;;;;;;;;;;;;;9.82;100.00;95752.91;10583950;27;2140;-69
2023/12/29 09:33:34;;;;;;;;;;;;;;;9.95;100.00;95741.63;10606104;27;1980;-69
2023/12/29 09:38:41;;;;;;;;;;;;;;;9.87;100.00;95744.88;10585492;27;1978;-65
2023/12/29 09:43:45;;;;;;;;;;;;;;;9.94;100.00;95740.03;10585814;27;2426;-64
2023/12/29 09:48:52;;;;;;;;;;;;;;;9.95;100.00;95733.56;10596121;27;2137;-63
2023/12/29 09:53:58;;;;;;;;;;;;;;;9.85;100.00;95737.06;10599897;27;1997;-65
2023/12/29 09:59:03;;;;;;;;;;;;;;;9.93;100.00;95733.06;10583902;27;1929;-66
2023/12/29 10:04:06;;;;;;;;;;;;;;;9.94;100.00;95713.97;10598720;27;2023;-66
2023/12/29 10:09:10;;;;;;;;;;;;;;;10.03;100.00;95722.28;10611256;27;1846;-67
2023/12/29 10:14:13;;;;;;;;;;;;;;;9.73;100.00;95713.19;10588669;27;5074;-67
2023/12/29 10:19:21;;;;;;;;;;;;;;;9.68;100.00;95710.50;10591837;27;2040;-76
2023/12/29 10:24:24;;;;;;;;;;;;;;;9.51;100.00;95693.88;10601684;27;2031;-65
2023/12/29 10:29:37;;;;;;;;;;;;;;;9.51;100.00;95685.00;10599877;27;2474;-64
2023/12/29 10:34:46;;;;;;;;;;;;;;;9.52;100.00;95679.38;10599907;27;2058;-63
2023/12/29 10:39:50;;;;;;;;;;;;;;;9.61;100.00;95664.34;10588657;27;1969;-65
2023/12/29 10:44:53;;;;;;;;;;;;;;;9.74;100.00;95661.13;10598179;27;2172;-67
2023/12/29 10:49:56;;;;;;;;;;;;;;;9.83;100.00;95666.72;10580494;27;2016;-65
2023/12/29 10:54:59;;;;;;;;;;;;;;;9.95;100.00;95663.75;10593685;27;2081;-64
2023/12/29 11:00:03;;;;;;;;;;;;;;;10.06;100.00;95651.94;10596034;27;1986;-65
2023/12/29 11:05:06;;;;;;;;;;;;;;;10.10;100.00;95644.09;10580625;27;2135;-64
2023/12/29 11:10:10;;;;;;;;;;;;;;;10.14;100.00;95637.94;10598899;27;2106;-65
2023/12/29 11:15:13;;;;;;;;;;;;;;;10.25;100.00;95641.41;10597329;27;5140;-64
2023/12/29 11:20:19;;;;;;;;;;;;;;;10.25;100.00;95650.28;10595060;27;1875;-65
2023/12/29 11:25:23;;;;;;;;;;;;;;;10.24;100.00;95639.78;10583996;27;2433;-65
2023/12/29 11:30:28;;;;;;;;;;;;;;;10.37;100.00;95641.09;10593828;27;1901;-66
2023/12/29 11:35:32;;;;;;;;;;;;;;;10.42;100.00;95633.00;10583558;27;1988;-64
2023/12/29 11:40:39;;;;;;;;;;;;;;;10.52;100.00;95638.34;10613825;27;2053;-65
2023/12/29 11:45:49;;;;;;;;;;;;;;;10.49;100.00;95638.88;10592020;27;2013;-67
2023/12/29 11:50:57;;;;;;;;;;;;;;;10.59;100.00;95614.66;10581800;27;1890;-66
2023/12/29 11:56:00;;;;;;;;;;;;;;;10.62;100.00;95621.34;10588693;27;2103;-65
2023/12/29 12:01:04;;;;;;;;;;;;;;;10.55;100.00;95619.75;10612640;27;2000;-67
2023/12/29 12:06:10;;;;;;;;;;;;;;;10.73;100.00;95614.84;10588920;27;1943;-65
2023/12/29 12:11:13;;;;;;;;;;;;;;;10.91;100.00;95618.78;10580739;27;1999;-65
2023/12/29 12:16:15;;;;;;;;;;;;;;;10.95;100.00;95609.06;10601913;27;5101;-65
2023/12/29 12:21:25;;;;;;;;;;;;;;;11.03;100.00;95601.19;10596592;27;2067;-68
2023/12/29 12:26:32;;;;;;;;;;;;;;;11.17;100.00;95598.66;10584428;27;1918;-64
2023/12/29 12:31:36;;;;;;;;;;;;;;;11.21;100.00;95597.03;10600841;27;1945;-65
2023/12/29 12:36:42;;;;;;;;;;;;;;;11.11;100.00;95591.72;10606656;27;2234;-65
2023/12/29 12:41:49;;;;;;;;;;;;;;;11.19;100.00;95598.38;10598954;27;2005;-65
2023/12/29 12:46:52;;;;;;;;;;;;;;;11.17;100.00;95601.34;10580896;27;1974;-65
2023/12/29 12:51:58;;;;;;;;;;;;;;;11.25;100.00;95589.19;10605168;27;2116;-65
2023/12/29 12:57:02;;;;;;;;;;;;;;;11.31;100.00;95596.94;10602360;27;2063;-65
2023/12/29 13:02:05;;;;;;;;;;;;;;;11.31;100.00;95602.31;10595348;27;1983;-65
2023/12/29 13:07:09;;;;;;;;;;;;;;;11.16;100.00;95602.44;10603775;27;2083;-70
2023/12/29 13:12:12;;;;;;;;;;;;;;;11.24;100.00;95609.09;10602241;27;2126;-70
2023/12/29 13:17:17;;;;;;;;;;;;;;;11.15;100.00;95614.31;10596028;27;2371;-68
2023/12/29 13:22:21;;;;;;;;;;;;;;;11.02;100.00;95601.50;10607920;27;2198;-65
2023/12/29 13:27:26;;;;;;;;;;;;;;;10.93;100.00;95606.63;10598836;27;2022;-69
2023/12/29 13:32:38;;;;;;;;;;;;;;;10.82;100.00;95605.13;10588464;27;2035;-66
2023/12/29 13:37:44;;;;;;;;;;;;;;;10.73;100.00;95604.88;10605001;27;2050;-65
2023/12/29 13:43:13;;;;;;;;;;;;;;;10.67;100.00;95592.56;10585398;27;2069;-63
2023/12/29 13:48:17;;;;;;;;;;;;;;;10.64;100.00;95598.50;10582800;27;2035;-65
2023/12/29 13:53:22;;;;;;;;;;;;;;;10.66;100.00;95587.47;10609332;27;1944;-66
2023/12/29 13:58:26;;;;;;;;;;;;;;;10.57;100.00;95591.84;10604751;27;2548;-66
2023/12/29 14:03:40;;;;;;;;;;;;;;;10.46;100.00;95591.88;10590010;27;2089;-65
2023/12/29 14:08:43;;;;;;;;;;;;;;;10.40;100.00;95605.63;10585270;27;2002;-66
2023/12/29 14:13:47;;;;;;;;;;;;;;;10.33;100.00;95602.44;10603218;27;5271;-65
2023/12/29 14:18:53;;;;;;;;;;;;;;;10.32;100.00;95607.00;10585945;27;1942;-64
2023/12/29 14:23:56;;;;;;;;;;;;;;;10.21;100.00;95608.88;10606344;27;2083;-65
2023/12/29 14:29:02;;;;;;;;;;;;;;;10.14;100.00;95621.81;10590370;27;1976;-65
2023/12/29 14:39:25;;;;;;;;;;;;;;;9.96;100.00;95608.97;10596414;27;2114;-64
2023/12/29 14:44:31;;;;;;;;;;;;;;;9.90;100.00;95608.19;10582434;27;2052;-66
2023/12/29 14:49:40;;;;;;;;;;;;;;;9.86;100.00;95615.19;10598501;27;2043;-66
2023/12/29 14:54:43;;;;;;;;;;;;;;;9.74;100.00;95610.13;10596197;27;2481;-64
2023/12/29 14:59:49;;;;;;;;;;;;;;;9.66;100.00;95609.84;10594599;27;1957;-64
2023/12/29 15:04:54;;;;;;;;;;;;;;;9.61;100.00;95613.38;10596481;27;1963;-64
2023/12/29 15:09:58;;;;;;;;;;;;;;;9.49;100.00;95610.16;10574480;27;2009;-66
2023/12/29 15:15:03;;;;;;;;;;;;;;;9.42;100.00;95604.28;10590700;27;4994;-65
2023/12/29 15:20:07;;;;;;;;;;;;;;;9.28;100.00;95608.56;10582453;27;2036;-63
2023/12/29 15:25:20;;;;;;;;;;;;;;;9.18;100.00;95610.19;10603097;27;2267;-66
2023/12/29 15:30:25;;;;;;;;;;;;;;;9.15;100.00;95612.56;10590205;27;1963;-65
2023/12/29 15:35:28;;;;;;;;;;;;;;;9.08;100.00;95610.16;10605126;27;2105;-65
2023/12/29 15:40:34;;;;;;;;;;;;;;;9.02;100.00;95621.97;10602769;27;1909;-66
2023/12/29 15:45:40;;;;;;;;;;;;;;;8.97;100.00;95621.97;10597094;27;2029;-66
2023/12/29 15:50:43;;;;;;;;;;;;;;;8.95;100.00;95610.69;10593653;27;2437;-65
2023/12/29 15:55:48;;;;;;;;;;;;;;;8.87;100.00;95609.34;10577076;27;2035;-65
2023/12/29 16:00:55;;;;;;;;;;;;;;;8.75;100.00;95611.47;10595223;27;2098;-65
2023/12/29 16:06:00;;;;;;;;;;;;;;;8.69;100.00;95606.38;10592439;27;2098;-65
2023/12/29 16:11:03;;;;;;;;;;;;;;;8.71;100.00;95598.88;10599163;27;1990;-65
2023/12/29 16:16:10;;;;;;;;;;;;;;;8.74;100.00;95609.88;10596031;27;5109;-65
2023/12/29 16:21:15;;;;;;;;;;;;;;;8.70;100.00;95613.34;10579222;27;2116;-65
2023/12/29 16:26:17;;;;;;;;;;;;;;;8.64;100.00;95616.00;10597089;27;1988;-65
2023/12/29 16:31:37;;;;;;;;;;;;;;;8.56;100.00;95619.22;10587111;27;1960;-65
2023/12/29 16:36:44;;;;;;;;;;;;;;;8.50;100.00;95614.91;10603231;27;1897;-66
2023/12/29 16:41:49;;;;;;;;;;;;;;;8.46;100.00;95613.00;10597736;27;2083;-71
2023/12/29 16:46:52;;;;;;;;;;;;;;;8.44;100.00;95599.09;10577372;27;2309;-73
2023/12/29 16:51:57;;;;;;;;;;;;;;;8.39;100.00;95600.66;10596276;27;1955;-70
2023/12/29 16:57:03;;;;;;;;;;;;;;;8.28;100.00;95590.19;10583492;27;2097;-65
2023/12/29 17:02:09;;;;;;;;;;;;;;;8.22;100.00;95593.91;10591679;27;1987;-63
2023/12/29 17:07:18;;;;;;;;;;;;;;;8.08;100.00;95581.00;10582529;27;2130;-64
2023/12/29 17:12:22;;;;;;;;;;;;;;;8.12;100.00;95575.91;10600558;27;5246;-65
2023/12/29 17:17:28;;;;;;;;;;;;;;;8.04;100.00;95573.75;10617930;27;2023;-64
2023/12/29 17:22:33;;;;;;;;;;;;;;;7.96;100.00;95572.41;10589779;27;2044;-70
2023/12/29 17:27:38;;;;;;;;;;;;;;;7.97;100.00;95565.97;10583385;27;2075;-66
2023/12/29 17:32:47;;;;;;;;;;;;;;;7.93;100.00;95574.78;10601540;27;2003;-65
2023/12/29 17:37:51;;;;;;;;;;;;;;;7.83;100.00;95570.19;10599504;27;1988;-67
2023/12/29 17:42:59;;;;;;;;;;;;;;;7.75;100.00;95576.03;10600585;27;1842;-66
2023/12/29 17:48:06;;;;;;;;;;;;;;;7.67;100.00;95576.53;10592555;27;2073;-67
2023/12/29 17:53:11;;;;;;;;;;;;;;;7.64;100.00;95569.03;10604956;27;2059;-64
2023/12/29 17:58:15;;;;;;;;;;;;;;;7.60;100.00;95571.41;10606106;27;2155;-66
2023/12/29 18:03:22;;;;;;;;;;;;;;;7.47;100.00;95569.19;10610196;27;2452;-65
2023/12/29 18:08:25;;;;;;;;;;;;;;;7.40;100.00;95573.97;10565004;27;2063;-66
2023/12/29 18:13:30;;;;;;;;;;;;;;;7.31;100.00;95581.66;10590190;27;5288;-65
2023/12/29 18:18:34;;;;;;;;;;;;;;;7.24;100.00;95575.72;10586574;27;2062;-64
2023/12/29 18:23:37;;;;;;;;;;;;;;;7.15;100.00;95571.94;10597059;27;2254;-72
2023/12/29 18:28:44;;;;;;;;;;;;;;;7.10;100.00;95575.38;10588931;27;2001;-72
2023/12/29 18:33:50;;;;;;;;;;;;;;;7.18;100.00;95571.41;10587579;27;1921;-67
2023/12/29 18:38:56;;;;;;;;;;;;;;;7.23;100.00;95563.44;10605731;27;1884;-67
2023/12/29 18:44:02;;;;;;;;;;;;;;;7.10;100.00;95559.34;10586858;27;1962;-69
2023/12/29 18:49:09;;;;;;;;;;;;;;;7.04;100.00;95566.50;10598956;27;2071;-66
2023/12/29 18:54:19;;;;;;;;;;;;;;;7.16;100.00;95563.66;10596530;27;2028;-65
2023/12/29 18:59:23;;;;;;;;;;;;;;;7.24;100.00;95565.03;10580992;27;2386;-66
2023/12/29 19:04:34;;;;;;;;;;;;;;;7.38;100.00;95565.38;10597046;27;1909;-65
2023/12/29 19:09:41;;;;;;;;;;;;;;;7.38;100.00;95550.19;10594352;27;1972;-64
2023/12/29 19:14:52;;;;;;;;;;;;;;;7.38;100.00;95560.03;10592296;27;5160;-65
2023/12/29 19:19:56;;;;;;;;;;;;;;;7.35;100.00;95568.59;10591652;27;2079;-65
2023/12/29 19:25:01;;;;;;;;;;;;;;;7.36;100.00;95562.97;10562269;27;2118;-64
2023/12/29 19:30:09;;;;;;;;;;;;;;;7.35;100.00;95553.34;10596576;27;2075;-64
2023/12/29 19:35:13;;;;;;;;;;;;;;;7.38;100.00;95554.69;10583156;27;2043;-65
2023/12/29 19:40:21;;;;;;;;;;;;;;;7.36;100.00;95551.47;10598225;27;2102;-64
2023/12/29 19:45:32;;;;;;;;;;;;;;;7.45;100.00;95550.75;10580287;27;2122;-64
2023/12/29 19:50:39;;;;;;;;;;;;;;;7.58;100.00;95549.47;10597769;27;1940;-65
2023/12/29 19:55:43;;;;;;;;;;;;;;;7.68;100.00;95548.72;10603510;27;2328;-66
2023/12/29 20:00:46;;;;;;;;;;;;;;;7.76;100.00;95550.88;10585818;27;2101;-65
2023/12/29 20:06:03;;;;;;;;;;;;;;;7.88;100.00;95553.34;10598392;27;2189;-66
2023/12/29 20:11:06;;;;;;;;;;;;;;;8.01;100.00;95544.81;10593905;27;2250;-64
2023/12/29 20:16:09;;;;;;;;;;;;;;;8.06;100.00;95556.34;10594658;27;1873;-65
2023/12/29 20:21:14;;;;;;;;;;;;;;;8.10;100.00;95554.78;10598157;27;2383;-66
2023/12/29 20:26:19;;;;;;;;;;;;;;;8.08;100.00;95556.91;10591155;27;2058;-64
2023/12/29 20:31:22;;;;;;;;;;;;;;;8.08;100.00;95556.13;10582592;27;2046;-66
2023/12/29 20:36:28;;;;;;;;;;;;;;;8.07;100.00;95563.31;10593183;27;1986;-65
2023/12/29 20:41:33;;;;;;;;;;;;;;;8.03;100.00;95550.75;10603994;27;2055;-64
2023/12/29 20:46:40;;;;;;;;;;;;;;;7.96;100.00;95558.22;10607151;27;2067;-65
2023/12/29 20:51:51;;;;;;;;;;;;;;;8.08;100.00;95562.28;10597504;27;2488;-65
2023/12/29 20:56:56;;;;;;;;;;;;;;;8.08;100.00;95559.59;10599989;27;1894;-65
2023/12/29 21:02:04;;;;;;;;;;;;;;;8.06;100.00;95550.19;10606826;27;2070;-64
2023/12/29 21:07:08;;;;;;;;;;;;;;;8.16;100.00;95565.50;10604930;27;1909;-64
2023/12/29 21:12:15;;;;;;;;;;;;;;;8.22;100.00;95564.47;10603515;27;5117;-65
2023/12/29 21:17:19;;;;;;;;;;;;;;;8.24;100.00;95562.31;10584971;27;1940;-65
2023/12/29 21:22:23;;;;;;;;;;;;;;;8.23;100.00;95563.38;10604451;27;1974;-65
2023/12/29 21:27:31;;;;;;;;;;;;;;;8.06;100.00;95577.78;10602765;27;1994;-67
2023/12/29 21:32:37;;;;;;;;;;;;;;;8.12;100.00;95571.38;10588464;27;2025;-72
2023/12/29 21:37:48;;;;;;;;;;;;;;;8.07;100.00;95568.66;10602322;27;2033;-65
2023/12/29 21:42:54;;;;;;;;;;;;;;;8.13;100.00;95570.28;10599473;27;1893;-64
2023/12/29 21:47:58;;;;;;;;;;;;;;;8.08;100.00;95574.84;10602322;27;2274;-65
2023/12/29 21:53:03;;;;;;;;;;;;;;;8.07;100.00;95576.69;10601666;27;2029;-66
2023/12/29 21:58:17;;;;;;;;;;;;;;;8.00;100.00;95584.16;10598028;27;1893;-65
2023/12/29 22:03:30;;;;;;;;;;;;;;;7.94;100.00;95590.56;10557611;27;2112;-65
2023/12/29 22:08:39;;;;;;;;;;;;;;;7.88;100.00;95596.97;10603077;27;1986;-65
2023/12/29 22:13:43;;;;;;;;;;;;;;;7.84;100.00;95593.22;10603270;27;5034;-65
2023/12/29 22:18:47;;;;;;;;;;;;;;;7.83;100.00;95597.75;10596717;27;2214;-66
2023/12/29 22:23:56;;;;;;;;;;;;;;;7.81;100.00;95599.88;10594519;27;2017;-69
2023/12/29 22:29:02;;;;;;;;;;;;;;;7.78;100.00;95586.22;10594564;27;2094;-65
2023/12/29 22:34:20;;;;;;;;;;;;;;;7.82;100.00;95590.81;10603056;27;1894;-67
2023/12/29 22:39:26;;;;;;;;;;;;;;;7.80;100.00;95586.75;10604060;27;1939;-65
2023/12/29 22:44:29;;;;;;;;;;;;;;;7.86;100.00;95593.75;10598302;27;2297;-65
2023/12/29 22:49:33;;;;;;;;;;;;;;;7.84;100.00;95588.66;10600860;27;2218;-64
2023/12/29 22:54:37;;;;;;;;;;;;;;;7.87;100.00;95584.66;10594328;27;1997;-67
2023/12/29 22:59:39;;;;;;;;;;;;;;;7.92;100.00;95584.69;10593130;27;2142;-64
2023/12/29 23:04:45;;;;;;;;;;;;;;;8.09;100.00;95582.63;10599757;27;2266;-64
2023/12/29 23:09:48;;;;;;;;;;;;;;;8.14;100.00;95573.78;10604732;27;2039;-67
2023/12/29 23:14:53;;;;;;;;;;;;;;;8.07;100.00;95578.56;10593626;27;4959;-67
2023/12/29 23:19:56;;;;;;;;;;;;;;;7.92;100.00;95579.31;10583759;27;2352;-73
2023/12/29 23:25:01;;;;;;;;;;;;;;;7.86;100.00;95588.41;10606235;27;1994;-67
2023/12/29 23:30:08;;;;;;;;;;;;;;;8.00;100.00;95578.03;10590075;27;2069;-65
2023/12/29 23:35:15;;;;;;;;;;;;;;;8.05;100.00;95578.03;10600544;27;2106;-66
2023/12/29 23:40:27;;;;;;;;;;;;;;;7.98;100.00;95572.94;10597329;27;2158;-70
2023/12/29 23:45:30;;;;;;;;;;;;;;;7.97;100.00;95582.03;10596313;27;1929;-74
2023/12/29 23:50:34;;;;;;;;;;;;;;;8.11;100.00;95575.13;10604701;27;2107;-72
2023/12/29 23:55:39;;;;;;;;;;;;;;;8.17;100.00;95562.56;10583816;27;1980;-72
